sensor_id;sensor_type;location;lat;lon;timestamp;P1;durP1;ratioP1;P2;durP2;ratioP2
77495;SDS011;66600;48.378;9.948;2023-02-11T14:57:19;29.55;;;15.68;;
77495;SDS011;66600;48.378;9.948;2023-02-11T15:00:00;27.17;;;15.23;;
77495;SDS011;66600;48.378;9.948;2023-02-11T15:02:38;27.35;;;15.23;;
77495;SDS011;66600;48.378;9.948;2023-02-11T15:07:48;33.60;;;15.13;;
77495;SDS011;66600;48.378;9.948;2023-02-11T15:10:17;27.55;;;14.70;;
77495;SDS011;66600;48.378;9.948;2023-02-11T15:12:52;25.80;;;14.88;;
77495;SDS011;66600;48.378;9.948;2023-02-11T15:15:18;29.88;;;15.20;;
77495;SDS011;66600;48.378;9.948;2023-02-11T15:17:43;25.40;;;14.95;;
77495;SDS011;66600;48.378;9.948;2023-02-11T15:20:29;27.38;;;15.32;;
77495;SDS011;66600;48.378;9.948;2023-02-11T15:22:57;32.45;;;14.80;;
77495;SDS011;66600;48.378;9.948;2023-02-11T15:25:26;28.35;;;16.40;;
77495;SDS011;66600;48.378;9.948;2023-02-11T15:27:56;25.33;;;14.48;;
77495;SDS011;66600;48.378;9.948;2023-02-11T15:30:23;28.27;;;14.93;;
77495;SDS011;66600;48.378;9.948;2023-02-11T15:32:55;28.60;;;15.55;;
77495;SDS011;66600;48.378;9.948;2023-02-11T15:35:33;27.50;;;14.98;;
77495;SDS011;66600;48.378;9.948;2023-02-11T15:38:01;34.22;;;16.15;;
77495;SDS011;66600;48.378;9.948;2023-02-11T15:40:32;26.77;;;14.90;;
77495;SDS011;66600;48.378;9.948;2023-02-11T15:43:03;25.15;;;13.80;;
77495;SDS011;66600;48.378;9.948;2023-02-11T15:48:34;25.90;;;13.63;;
77495;SDS011;66600;48.378;9.948;2023-02-11T15:51:06;25.17;;;13.88;;
77495;SDS011;66600;48.378;9.948;2023-02-11T15:53:38;24.50;;;13.98;;
77495;SDS011;66600;48.378;9.948;2023-02-11T15:56:16;22.42;;;13.68;;
77495;SDS011;66600;48.378;9.948;2023-02-11T15:58:45;24.93;;;14.30;;
77495;SDS011;66600;48.378;9.948;2023-02-11T16:01:13;29.63;;;14.75;;
77495;SDS011;66600;48.378;9.948;2023-02-11T16:03:39;28.10;;;13.95;;
77495;SDS011;66600;48.378;9.948;2023-02-11T16:11:33;36.08;;;17.40;;
77495;SDS011;66600;48.378;9.948;2023-02-11T16:14:00;28.98;;;14.70;;
77495;SDS011;66600;48.378;9.948;2023-02-11T16:16:43;30.20;;;15.02;;
77495;SDS011;66600;48.378;9.948;2023-02-11T16:19:13;31.77;;;14.25;;
77495;SDS011;66600;48.378;9.948;2023-02-11T16:21:43;28.20;;;14.43;;
77495;SDS011;66600;48.378;9.948;2023-02-11T16:24:20;27.75;;;13.68;;
77495;SDS011;66600;48.378;9.948;2023-02-11T16:29:21;27.85;;;13.05;;
77495;SDS011;66600;48.378;9.948;2023-02-11T16:31:49;27.55;;;13.38;;
77495;SDS011;66600;48.378;9.948;2023-02-11T16:34:19;25.15;;;13.30;;
77495;SDS011;66600;48.378;9.948;2023-02-11T16:36:48;29.85;;;14.52;;
77495;SDS011;66600;48.378;9.948;2023-02-11T16:39:15;34.03;;;15.52;;
77495;SDS011;66600;48.378;9.948;2023-02-11T16:41:41;30.85;;;15.80;;
77495;SDS011;66600;48.378;9.948;2023-02-11T16:44:07;31.77;;;15.73;;
77495;SDS011;66600;48.378;9.948;2023-02-11T16:46:32;28.10;;;14.73;;
77495;SDS011;66600;48.378;9.948;2023-02-11T16:49:00;28.48;;;14.20;;
77495;SDS011;66600;48.378;9.948;2023-02-11T16:51:37;27.55;;;14.02;;
77495;SDS011;66600;48.378;9.948;2023-02-11T16:54:04;32.33;;;14.80;;
77495;SDS011;66600;48.378;9.948;2023-02-11T16:56:29;27.05;;;13.45;;
77495;SDS011;66600;48.378;9.948;2023-02-11T16:58:55;29.40;;;14.02;;
77495;SDS011;66600;48.378;9.948;2023-02-11T17:01:20;24.90;;;12.68;;
77495;SDS011;66600;48.378;9.948;2023-02-11T17:03:45;26.33;;;13.80;;
77495;SDS011;66600;48.378;9.948;2023-02-11T17:06:11;25.27;;;13.15;;
77495;SDS011;66600;48.378;9.948;2023-02-11T17:08:37;26.15;;;13.45;;
77495;SDS011;66600;48.378;9.948;2023-02-11T17:11:03;27.25;;;13.65;;
77495;SDS011;66600;48.378;9.948;2023-02-11T17:13:29;24.70;;;12.45;;
77495;SDS011;66600;48.378;9.948;2023-02-11T17:15:55;22.80;;;12.52;;
77495;SDS011;66600;48.378;9.948;2023-02-11T17:18:20;26.67;;;14.13;;
77495;SDS011;66600;48.378;9.948;2023-02-11T17:20:46;24.15;;;13.13;;
77495;SDS011;66600;48.378;9.948;2023-02-11T17:23:11;27.10;;;12.75;;
77495;SDS011;66600;48.378;9.948;2023-02-11T17:25:36;20.10;;;11.60;;
77495;SDS011;66600;48.378;9.948;2023-02-11T17:28:02;49.47;;;19.33;;
77495;SDS011;66600;48.378;9.948;2023-02-11T17:30:29;40.88;;;21.35;;
77495;SDS011;66600;48.378;9.948;2023-02-11T17:32:54;24.85;;;12.88;;
77495;SDS011;66600;48.378;9.948;2023-02-11T17:35:20;29.17;;;13.40;;
77495;SDS011;66600;48.378;9.948;2023-02-11T17:37:45;26.10;;;11.93;;
77495;SDS011;66600;48.378;9.948;2023-02-11T17:40:10;21.73;;;12.07;;
77495;SDS011;66600;48.378;9.948;2023-02-11T17:42:36;20.95;;;13.10;;
77495;SDS011;66600;48.378;9.948;2023-02-11T17:45:02;25.23;;;14.75;;
77495;SDS011;66600;48.378;9.948;2023-02-11T17:47:28;23.08;;;13.30;;
77495;SDS011;66600;48.378;9.948;2023-02-11T17:49:54;26.63;;;13.65;;
77495;SDS011;66600;48.378;9.948;2023-02-11T17:52:19;23.10;;;12.40;;
77495;SDS011;66600;48.378;9.948;2023-02-11T17:54:45;23.95;;;12.75;;
77495;SDS011;66600;48.378;9.948;2023-02-11T17:57:11;23.95;;;13.45;;
77495;SDS011;66600;48.378;9.948;2023-02-11T17:59:37;24.27;;;12.35;;
77495;SDS011;66600;48.378;9.948;2023-02-11T18:02:03;25.20;;;12.82;;
77495;SDS011;66600;48.378;9.948;2023-02-11T18:04:29;21.50;;;12.20;;
77495;SDS011;66600;48.378;9.948;2023-02-11T18:06:55;19.42;;;11.77;;
77495;SDS011;66600;48.378;9.948;2023-02-11T18:09:21;21.10;;;11.93;;
77495;SDS011;66600;48.378;9.948;2023-02-11T18:11:47;22.98;;;13.27;;
77495;SDS011;66600;48.378;9.948;2023-02-11T18:14:14;19.10;;;11.43;;
77495;SDS011;66600;48.378;9.948;2023-02-11T18:16:39;24.08;;;11.70;;
77495;SDS011;66600;48.378;9.948;2023-02-11T18:19:08;25.05;;;12.65;;
77495;SDS011;66600;48.378;9.948;2023-02-11T18:21:34;22.02;;;12.80;;
77495;SDS011;66600;48.378;9.948;2023-02-11T18:23:59;22.17;;;12.40;;
77495;SDS011;66600;48.378;9.948;2023-02-11T18:26:25;21.52;;;12.05;;
77495;SDS011;66600;48.378;9.948;2023-02-11T18:28:52;22.92;;;12.63;;
77495;SDS011;66600;48.378;9.948;2023-02-11T18:31:18;22.70;;;12.75;;
77495;SDS011;66600;48.378;9.948;2023-02-11T18:33:44;25.35;;;12.40;;
77495;SDS011;66600;48.378;9.948;2023-02-11T18:36:11;22.55;;;12.05;;
77495;SDS011;66600;48.378;9.948;2023-02-11T18:38:38;20.77;;;11.70;;
77495;SDS011;66600;48.378;9.948;2023-02-11T18:41:04;26.90;;;13.13;;
77495;SDS011;66600;48.378;9.948;2023-02-11T18:43:31;24.65;;;12.60;;
77495;SDS011;66600;48.378;9.948;2023-02-11T18:45:58;20.80;;;12.48;;
77495;SDS011;66600;48.378;9.948;2023-02-11T18:48:24;23.77;;;12.85;;
77495;SDS011;66600;48.378;9.948;2023-02-11T18:50:53;23.67;;;12.57;;
77495;SDS011;66600;48.378;9.948;2023-02-11T18:53:18;22.73;;;12.10;;
77495;SDS011;66600;48.378;9.948;2023-02-11T18:55:45;25.77;;;13.60;;
77495;SDS011;66600;48.378;9.948;2023-02-11T18:58:11;24.75;;;13.10;;
77495;SDS011;66600;48.378;9.948;2023-02-11T19:00:41;26.42;;;13.73;;
77495;SDS011;66600;48.378;9.948;2023-02-11T19:03:08;28.92;;;15.02;;
77495;SDS011;66600;48.378;9.948;2023-02-11T19:05:44;24.17;;;13.18;;
77495;SDS011;66600;48.378;9.948;2023-02-11T19:08:10;24.58;;;12.93;;
77495;SDS011;66600;48.378;9.948;2023-02-11T19:10:43;28.63;;;13.75;;
77495;SDS011;66600;48.378;9.948;2023-02-11T19:13:11;25.27;;;13.10;;
77495;SDS011;66600;48.378;9.948;2023-02-11T19:15:40;25.50;;;13.25;;
77495;SDS011;66600;48.378;9.948;2023-02-11T19:20:31;21.55;;;12.40;;
77495;SDS011;66600;48.378;9.948;2023-02-11T19:22:57;23.83;;;12.13;;
77495;SDS011;66600;48.378;9.948;2023-02-11T19:25:23;28.85;;;14.27;;
77495;SDS011;66600;48.378;9.948;2023-02-11T19:27:49;27.42;;;14.10;;
77495;SDS011;66600;48.378;9.948;2023-02-11T19:30:14;26.30;;;13.50;;
77495;SDS011;66600;48.378;9.948;2023-02-11T19:32:39;27.08;;;14.20;;
77495;SDS011;66600;48.378;9.948;2023-02-11T19:35:04;25.42;;;13.48;;
77495;SDS011;66600;48.378;9.948;2023-02-11T19:37:30;25.00;;;14.00;;
77495;SDS011;66600;48.378;9.948;2023-02-11T19:39:55;27.15;;;14.00;;
77495;SDS011;66600;48.378;9.948;2023-02-11T19:42:21;27.02;;;13.88;;
77495;SDS011;66600;48.378;9.948;2023-02-11T19:44:46;33.63;;;16.10;;
77495;SDS011;66600;48.378;9.948;2023-02-11T19:47:11;25.38;;;14.10;;
77495;SDS011;66600;48.378;9.948;2023-02-11T19:49:37;26.80;;;14.18;;
77495;SDS011;66600;48.378;9.948;2023-02-11T19:52:02;28.13;;;14.50;;
77495;SDS011;66600;48.378;9.948;2023-02-11T19:54:28;28.05;;;14.45;;
77495;SDS011;66600;48.378;9.948;2023-02-11T19:56:53;23.40;;;13.30;;
77495;SDS011;66600;48.378;9.948;2023-02-11T19:59:19;26.60;;;14.77;;
77495;SDS011;66600;48.378;9.948;2023-02-11T20:01:45;26.20;;;14.27;;
77495;SDS011;66600;48.378;9.948;2023-02-11T20:04:13;26.45;;;14.05;;
77495;SDS011;66600;48.378;9.948;2023-02-11T20:06:39;25.70;;;13.68;;
77495;SDS011;66600;48.378;9.948;2023-02-11T20:09:05;27.05;;;14.70;;
77495;SDS011;66600;48.378;9.948;2023-02-11T20:11:36;27.25;;;14.82;;
77495;SDS011;66600;48.378;9.948;2023-02-11T20:14:02;29.58;;;15.63;;
77495;SDS011;66600;48.378;9.948;2023-02-11T20:16:29;31.02;;;14.80;;
77495;SDS011;66600;48.378;9.948;2023-02-11T20:18:55;28.27;;;14.95;;
77495;SDS011;66600;48.378;9.948;2023-02-11T20:21:25;30.00;;;14.85;;
77495;SDS011;66600;48.378;9.948;2023-02-11T20:23:51;30.13;;;15.02;;
77495;SDS011;66600;48.378;9.948;2023-02-11T20:26:18;28.50;;;14.63;;
77495;SDS011;66600;48.378;9.948;2023-02-11T20:28:50;30.70;;;16.05;;
77495;SDS011;66600;48.378;9.948;2023-02-11T20:31:16;30.67;;;15.68;;
77495;SDS011;66600;48.378;9.948;2023-02-11T20:33:42;25.75;;;13.15;;
77495;SDS011;66600;48.378;9.948;2023-02-11T20:36:30;30.25;;;14.57;;
77495;SDS011;66600;48.378;9.948;2023-02-11T20:38:59;28.40;;;14.98;;
77495;SDS011;66600;48.378;9.948;2023-02-11T20:41:27;31.60;;;15.38;;
77495;SDS011;66600;48.378;9.948;2023-02-11T20:43:57;26.65;;;14.10;;
77495;SDS011;66600;48.378;9.948;2023-02-11T20:46:24;28.75;;;14.65;;
77495;SDS011;66600;48.378;9.948;2023-02-11T20:48:51;29.27;;;14.57;;
77495;SDS011;66600;48.378;9.948;2023-02-11T20:51:20;32.50;;;14.90;;
77495;SDS011;66600;48.378;9.948;2023-02-11T20:53:48;37.83;;;17.50;;
77495;SDS011;66600;48.378;9.948;2023-02-11T20:56:25;31.70;;;18.15;;
77495;SDS011;66600;48.378;9.948;2023-02-11T20:58:53;35.03;;;18.95;;
77495;SDS011;66600;48.378;9.948;2023-02-11T21:01:27;34.25;;;18.67;;
77495;SDS011;66600;48.378;9.948;2023-02-11T21:03:54;37.03;;;18.48;;
77495;SDS011;66600;48.378;9.948;2023-02-11T21:06:25;34.50;;;18.95;;
77495;SDS011;66600;48.378;9.948;2023-02-11T21:08:56;34.95;;;18.92;;
77495;SDS011;66600;48.378;9.948;2023-02-11T21:11:21;34.58;;;18.90;;
77495;SDS011;66600;48.378;9.948;2023-02-11T21:13:47;32.95;;;17.95;;
77495;SDS011;66600;48.378;9.948;2023-02-11T21:16:14;34.15;;;18.70;;
77495;SDS011;66600;48.378;9.948;2023-02-11T21:18:44;34.30;;;18.63;;
77495;SDS011;66600;48.378;9.948;2023-02-11T21:21:10;34.05;;;17.25;;
77495;SDS011;66600;48.378;9.948;2023-02-11T21:23:35;35.13;;;18.20;;
77495;SDS011;66600;48.378;9.948;2023-02-11T21:26:02;32.38;;;17.20;;
77495;SDS011;66600;48.378;9.948;2023-02-11T21:28:27;32.03;;;16.25;;
77495;SDS011;66600;48.378;9.948;2023-02-11T21:30:53;39.05;;;18.13;;
77495;SDS011;66600;48.378;9.948;2023-02-11T21:33:19;33.15;;;17.25;;
77495;SDS011;66600;48.378;9.948;2023-02-11T21:35:45;32.90;;;16.90;;
77495;SDS011;66600;48.378;9.948;2023-02-11T21:38:11;29.63;;;16.63;;
77495;SDS011;66600;48.378;9.948;2023-02-11T21:40:36;31.17;;;16.67;;
77495;SDS011;66600;48.378;9.948;2023-02-11T21:43:02;32.42;;;17.23;;
77495;SDS011;66600;48.378;9.948;2023-02-11T21:45:27;34.17;;;17.15;;
77495;SDS011;66600;48.378;9.948;2023-02-11T21:47:53;30.85;;;16.42;;
77495;SDS011;66600;48.378;9.948;2023-02-11T21:50:18;35.03;;;17.40;;
77495;SDS011;66600;48.378;9.948;2023-02-11T21:52:44;31.40;;;16.85;;
77495;SDS011;66600;48.378;9.948;2023-02-11T21:55:09;32.90;;;17.58;;
77495;SDS011;66600;48.378;9.948;2023-02-11T21:57:35;32.95;;;17.83;;
77495;SDS011;66600;48.378;9.948;2023-02-11T22:00:04;40.28;;;18.65;;
77495;SDS011;66600;48.378;9.948;2023-02-11T22:02:31;39.13;;;19.48;;
77495;SDS011;66600;48.378;9.948;2023-02-11T22:04:57;34.22;;;18.83;;
77495;SDS011;66600;48.378;9.948;2023-02-11T22:07:22;33.38;;;18.33;;
77495;SDS011;66600;48.378;9.948;2023-02-11T22:09:47;34.20;;;17.85;;
77495;SDS011;66600;48.378;9.948;2023-02-11T22:12:15;34.08;;;18.98;;
77495;SDS011;66600;48.378;9.948;2023-02-11T22:14:40;34.20;;;17.83;;
77495;SDS011;66600;48.378;9.948;2023-02-11T22:17:06;34.28;;;19.55;;
77495;SDS011;66600;48.378;9.948;2023-02-11T22:19:32;35.00;;;17.50;;
77495;SDS011;66600;48.378;9.948;2023-02-11T22:21:58;34.00;;;18.38;;
77495;SDS011;66600;48.378;9.948;2023-02-11T22:24:23;34.40;;;18.77;;
77495;SDS011;66600;48.378;9.948;2023-02-11T22:26:48;36.30;;;19.50;;
77495;SDS011;66600;48.378;9.948;2023-02-11T22:29:14;33.30;;;18.92;;
77495;SDS011;66600;48.378;9.948;2023-02-11T22:31:39;34.95;;;18.40;;
77495;SDS011;66600;48.378;9.948;2023-02-11T22:34:04;35.67;;;19.50;;
77495;SDS011;66600;48.378;9.948;2023-02-11T22:36:31;39.88;;;21.77;;
77495;SDS011;66600;48.378;9.948;2023-02-11T22:39:05;41.40;;;21.20;;
77495;SDS011;66600;48.378;9.948;2023-02-11T22:41:32;41.85;;;23.13;;
77495;SDS011;66600;48.378;9.948;2023-02-11T22:43:58;39.53;;;22.15;;
77495;SDS011;66600;48.378;9.948;2023-02-11T22:46:23;35.10;;;19.02;;
77495;SDS011;66600;48.378;9.948;2023-02-11T22:48:49;35.97;;;18.20;;
77495;SDS011;66600;48.378;9.948;2023-02-11T22:51:16;38.58;;;19.52;;
77495;SDS011;66600;48.378;9.948;2023-02-11T22:53:47;37.20;;;20.83;;
77495;SDS011;66600;48.378;9.948;2023-02-11T22:56:13;44.92;;;22.48;;
77495;SDS011;66600;48.378;9.948;2023-02-11T22:58:38;56.90;;;30.85;;
77495;SDS011;66600;48.378;9.948;2023-02-11T23:01:04;53.90;;;28.48;;
77495;SDS011;66600;48.378;9.948;2023-02-11T23:03:31;47.05;;;25.50;;
77495;SDS011;66600;48.378;9.948;2023-02-11T23:05:58;41.50;;;23.02;;
77495;SDS011;66600;48.378;9.948;2023-02-11T23:08:24;37.75;;;19.08;;
77495;SDS011;66600;48.378;9.948;2023-02-11T23:10:51;40.38;;;20.63;;
77495;SDS011;66600;48.378;9.948;2023-02-11T23:13:16;33.05;;;18.70;;
77495;SDS011;66600;48.378;9.948;2023-02-11T23:15:42;38.72;;;20.98;;
77495;SDS011;66600;48.378;9.948;2023-02-11T23:18:09;44.90;;;23.58;;
77495;SDS011;66600;48.378;9.948;2023-02-11T23:20:39;44.30;;;24.40;;
77495;SDS011;66600;48.378;9.948;2023-02-11T23:23:06;38.30;;;22.00;;
77495;SDS011;66600;48.378;9.948;2023-02-11T23:25:32;36.60;;;18.35;;
77495;SDS011;66600;48.378;9.948;2023-02-11T23:27:58;34.65;;;18.90;;
77495;SDS011;66600;48.378;9.948;2023-02-11T23:30:24;33.10;;;18.83;;
77495;SDS011;66600;48.378;9.948;2023-02-11T23:32:49;38.67;;;19.05;;
77495;SDS011;66600;48.378;9.948;2023-02-11T23:35:15;33.47;;;18.52;;
77495;SDS011;66600;48.378;9.948;2023-02-11T23:37:49;31.33;;;17.15;;
77495;SDS011;66600;48.378;9.948;2023-02-11T23:40:16;32.95;;;16.83;;
77495;SDS011;66600;48.378;9.948;2023-02-11T23:42:43;31.13;;;16.90;;
77495;SDS011;66600;48.378;9.948;2023-02-11T23:45:08;31.27;;;15.30;;
77495;SDS011;66600;48.378;9.948;2023-02-11T23:47:34;30.27;;;16.02;;
77495;SDS011;66600;48.378;9.948;2023-02-11T23:49:59;33.65;;;16.02;;
77495;SDS011;66600;48.378;9.948;2023-02-11T23:52:24;31.42;;;16.35;;
77495;SDS011;66600;48.378;9.948;2023-02-11T23:54:50;33.20;;;16.40;;
77495;SDS011;66600;48.378;9.948;2023-02-11T23:57:15;27.30;;;15.52;;
77495;SDS011;66600;48.378;9.948;2023-02-11T23:59:41;36.85;;;18.58;;
